Time;durP1;ratioP1;P1;durP2;ratioP2;P2;SDS_P1;SDS_P2;PMS_P1;PMS_P2;Temp;Humidity;BMP_temperature;BMP_pressure;BME280_temperature;BME280_humidity;BME280_pressure;Samples;Min_cycle;Max_cycle;Signal;HPM_P1;HPM_P2
2022/07/20 00:00:12;;;;;;;9.27;6.00;;;19.50;89.50;;;;;;5059939;28;20183;-81
2022/07/20 00:02:38;;;;;;;9.90;5.90;;;19.50;90.10;;;;;;5061828;28;20552;-80
2022/07/20 00:05:04;;;;;;;11.40;5.73;;;19.50;90.10;;;;;;5061250;28;20197;-81
2022/07/20 00:07:30;;;;;;;7.40;5.30;;;19.50;90.20;;;;;;5062581;28;20216;-81
2022/07/20 00:12:40;;;;;;;7.07;5.23;;;19.50;90.40;;;;;;5062253;28;20169;-81
2022/07/20 00:15:06;;;;;;;10.77;6.03;;;19.40;90.40;;;;;;5077866;28;20209;-81
2022/07/20 00:17:32;;;;;;;7.93;5.67;;;19.40;90.90;;;;;;5081627;28;20654;-81
2022/07/20 00:19:58;;;;;;;7.43;5.67;;;19.30;91.10;;;;;;5081939;28;20182;-81
2022/07/20 00:22:23;;;;;;;8.00;6.03;;;19.30;91.10;;;;;;5080932;28;20670;-81
2022/07/20 00:24:49;;;;;;;11.50;6.03;;;;;;;;;;5080744;28;20204;-81
2022/07/20 00:27:15;;;;;;;8.43;5.77;;;19.30;91.40;;;;;;5081064;28;20206;-81
2022/07/20 00:29:41;;;;;;;13.37;6.20;;;19.20;91.50;;;;;;5083226;28;20161;-81
2022/07/20 00:32:07;;;;;;;7.67;6.00;;;;;;;;;;5084173;28;20191;-82
2022/07/20 00:34:33;;;;;;;8.00;5.33;;;;;;;;;;5080186;28;20231;-81
2022/07/20 00:36:58;;;;;;;9.23;6.00;;;19.20;91.50;;;;;;5078513;28;20183;-81
2022/07/20 00:39:24;;;;;;;8.83;5.37;;;19.10;91.80;;;;;;5080013;28;20215;-81
2022/07/20 00:41:50;;;;;;;11.40;5.87;;;;;;;;;;5078980;28;20207;-80
2022/07/20 00:44:16;;;;;;;9.67;6.60;;;19.00;91.70;;;;;;5070842;28;20205;-80
2022/07/20 00:46:44;;;;;;;7.90;5.80;;;18.90;91.70;;;;;;5075208;28;20181;-81
2022/07/20 00:49:11;;;;;;;8.90;6.10;;;18.90;91.70;;;;;;5059925;28;20647;-81
2022/07/20 00:51:41;;;;;;;11.13;5.93;;;18.90;92.10;;;;;;5060337;28;20173;-81
2022/07/20 00:54:07;;;;;;;8.90;5.43;;;18.80;91.70;;;;;;5060641;28;20250;-81
2022/07/20 00:56:34;;;;;;;8.87;5.93;;;18.80;92.20;;;;;;5063200;28;20263;-81
2022/07/20 00:59:08;;;;;;;6.53;5.73;;;18.80;92.40;;;;;;5062664;28;20180;-81
2022/07/20 01:01:34;;;;;;;10.83;6.53;;;18.80;92.30;;;;;;5080180;28;20223;-81
2022/07/20 01:04:00;;;;;;;8.87;6.27;;;18.70;92.50;;;;;;5067429;28;20233;-81
2022/07/20 01:06:26;;;;;;;9.87;5.90;;;18.80;92.40;;;;;;5080370;28;20187;-80
2022/07/20 01:08:52;;;;;;;10.63;6.13;;;18.70;92.50;;;;;;5079982;28;20212;-80
2022/07/20 01:11:19;;;;;;;8.10;6.20;;;18.70;92.40;;;;;;5081081;28;20665;-81
2022/07/20 01:13:45;;;;;;;10.93;6.43;;;18.80;92.20;;;;;;5076208;28;20281;-80
2022/07/20 01:16:11;;;;;;;6.50;5.80;;;;;;;;;;5058131;28;20310;-80
2022/07/20 01:18:36;;;;;;;7.90;6.10;;;18.70;92.10;;;;;;5057656;28;20183;-80
2022/07/20 01:21:09;;;;;;;6.50;5.37;;;18.70;92.00;;;;;;5061343;28;20183;-81
2022/07/20 01:23:35;;;;;;;8.63;6.00;;;18.70;92.20;;;;;;5061904;28;20272;-80
2022/07/20 01:26:01;;;;;;;8.43;6.43;;;18.70;92.40;;;;;;5082013;28;20240;-80
2022/07/20 01:28:28;;;;;;;8.13;6.00;;;18.70;92.20;;;;;;5082247;28;20204;-80
2022/07/20 01:30:54;;;;;;;11.03;6.10;;;18.70;92.50;;;;;;5082982;28;20202;-80
2022/07/20 01:33:21;;;;;;;12.83;6.70;;;18.60;92.60;;;;;;5081477;28;20192;-80
2022/07/20 01:35:46;;;;;;;10.10;5.83;;;18.70;92.60;;;;;;5081871;28;20186;-81
2022/07/20 01:38:12;;;;;;;12.13;6.60;;;;;;;;;;5098520;28;20203;-81
2022/07/20 01:40:38;;;;;;;7.77;5.57;;;18.60;92.90;;;;;;5083274;28;20219;-81
2022/07/20 01:43:04;;;;;;;10.07;6.13;;;18.60;93.00;;;;;;5081955;28;20215;-80
2022/07/20 01:45:30;;;;;;;13.87;6.27;;;;;;;;;;5081108;28;20197;-81
2022/07/20 01:47:56;;;;;;;10.97;6.30;;;18.70;93.80;;;;;;5081591;28;20188;-81
2022/07/20 01:50:21;;;;;;;9.07;6.40;;;18.40;93.70;;;;;;5083779;28;20212;-81
2022/07/20 01:52:47;;;;;;;8.37;5.93;;;18.70;94.40;;;;;;5082863;28;20205;-81
2022/07/20 01:55:13;;;;;;;7.90;5.23;;;18.40;94.70;;;;;;5077098;28;20204;-81
2022/07/20 01:57:39;;;;;;;7.20;5.53;;;;;;;;;;5061802;28;20185;-81
2022/07/20 02:00:07;;;;;;;10.07;5.70;;;18.60;94.40;;;;;;5063822;28;20229;-81
2022/07/20 02:02:33;;;;;;;7.70;5.43;;;18.60;94.60;;;;;;5062558;28;20212;-81
2022/07/20 02:04:58;;;;;;;8.40;5.83;;;18.60;94.40;;;;;;5071360;28;20201;-81
2022/07/20 02:07:24;;;;;;;6.93;5.80;;;18.60;94.80;;;;;;5083440;28;20176;-81
2022/07/20 02:09:50;;;;;;;7.10;5.33;;;18.60;94.70;;;;;;5085797;28;20177;-81
2022/07/20 02:12:15;;;;;;;10.30;5.90;;;18.60;95.00;;;;;;5085210;28;20194;-81
2022/07/20 02:14:41;;;;;;;7.87;5.17;;;;;;;;;;5080899;28;20211;-81
2022/07/20 02:17:07;;;;;;;11.70;6.13;;;18.60;95.40;;;;;;5084007;28;20172;-81
2022/07/20 02:19:33;;;;;;;8.37;5.30;;;18.50;95.30;;;;;;5082877;28;20554;-81
2022/07/20 02:21:58;;;;;;;6.60;5.53;;;18.60;95.80;;;;;;5103497;28;20581;-81
2022/07/20 02:24:24;;;;;;;8.07;5.50;;;18.60;95.80;;;;;;5102001;28;20226;-82
2022/07/20 02:26:50;;;;;;;7.77;5.40;;;18.30;96.30;;;;;;5099397;28;20176;-81
2022/07/20 02:29:15;;;;;;;5.87;5.27;;;18.60;96.40;;;;;;5082695;28;20172;-81
2022/07/20 02:31:41;;;;;;;7.07;5.23;;;;;;;;;;5083255;28;20177;-81
2022/07/20 02:34:07;;;;;;;12.13;5.40;;;;;;;;;;5078066;28;20201;-81
2022/07/20 02:36:33;;;;;;;8.67;5.83;;;18.50;97.80;;;;;;5062004;28;20180;-80
2022/07/20 02:38:59;;;;;;;8.40;5.80;;;;;;;;;;5060163;28;20253;-81
2022/07/20 02:41:25;;;;;;;7.40;5.93;;;;;;;;;;5068751;28;20242;-81
2022/07/20 02:43:51;;;;;;;8.33;5.37;;;18.50;97.40;;;;;;5062102;28;20209;-81
2022/07/20 02:46:16;;;;;;;8.13;5.70;;;18.40;99.10;;;;;;5061879;28;20265;-80
2022/07/20 02:48:42;;;;;;;8.43;5.93;;;18.50;99.40;;;;;;5060485;28;20177;-81
2022/07/20 02:51:08;;;;;;;8.77;5.53;;;;;;;;;;5066814;28;20176;-80
2022/07/20 02:53:34;;;;;;;8.57;5.47;;;18.40;99.50;;;;;;5080457;28;20880;-81
2022/07/20 02:56:00;;;;;;;6.20;5.40;;;;;;;;;;5082451;28;20175;-81
2022/07/20 02:58:25;;;;;;;6.43;5.27;;;18.60;99.70;;;;;;5081998;28;20183;-81
2022/07/20 03:00:52;;;;;;;6.73;5.73;;;;;;;;;;5080173;28;20241;-81
2022/07/20 03:03:17;;;;;;;7.30;5.03;;;18.60;99.50;;;;;;5082288;28;20674;-81
2022/07/20 03:05:43;;;;;;;9.77;5.23;;;;;;;;;;5083191;28;20171;-81
2022/07/20 03:08:09;;;;;;;9.83;5.50;;;;;;;;;;5080429;28;20176;-81
2022/07/20 03:10:36;;;;;;;7.67;5.00;;;18.30;99.60;;;;;;5080626;28;20245;-81
2022/07/20 03:13:02;;;;;;;5.93;4.83;;;18.40;99.60;;;;;;5081733;28;20179;-81
2022/07/20 03:15:28;;;;;;;7.47;5.47;;;18.60;99.60;;;;;;5081171;28;20197;-81
2022/07/20 03:17:54;;;;;;;6.60;5.27;;;18.60;98.90;;;;;;5079872;28;20184;-81
2022/07/20 03:20:27;;;;;;;7.40;5.23;;;18.50;99.10;;;;;;5079933;28;20190;-80
2022/07/20 03:22:53;;;;;;;8.47;5.10;;;18.30;99.90;;;;;;5054499;28;20219;-79
2022/07/20 03:25:19;;;;;;;6.20;5.23;;;18.80;99.80;;;;;;5061989;28;20200;-80
2022/07/20 03:27:45;;;;;;;5.97;5.10;;;18.50;99.90;;;;;;5067823;28;20184;-79
2022/07/20 03:30:12;;;;;;;6.57;4.77;;;18.70;99.90;;;;;;5070801;28;20182;-79
2022/07/20 03:32:38;;;;;;;8.90;5.40;;;18.70;99.90;;;;;;5087029;28;20192;-79
2022/07/20 03:35:04;;;;;;;7.70;5.50;;;18.60;99.90;;;;;;5090418;28;20207;-80
2022/07/20 03:37:30;;;;;;;8.00;5.80;;;18.50;99.60;;;;;;5089710;28;20246;-80
2022/07/20 03:39:56;;;;;;;7.53;5.03;;;;;;;;;;5090255;28;20206;-80
2022/07/20 03:42:21;;;;;;;6.43;5.23;;;18.50;99.70;;;;;;5089297;28;20249;-79
2022/07/20 03:44:47;;;;;;;9.57;5.13;;;18.40;99.80;;;;;;5088642;28;20200;-80
2022/07/20 03:47:13;;;;;;;7.67;5.83;;;;;;;;;;5088919;28;20523;-79
2022/07/20 03:49:39;;;;;;;9.13;5.23;;;18.20;99.90;;;;;;5089125;28;20173;-80
2022/07/20 03:52:05;;;;;;;6.97;5.23;;;18.30;99.90;;;;;;5071119;28;20712;-80
2022/07/20 03:54:31;;;;;;;9.27;5.47;;;18.30;99.90;;;;;;5060435;28;20194;-81
2022/07/20 03:56:57;;;;;;;8.83;5.40;;;;;;;;;;5075352;28;20214;-81
2022/07/20 03:59:23;;;;;;;8.90;5.13;;;18.30;99.90;;;;;;5059686;28;20174;-80
2022/07/20 04:01:48;;;;;;;7.27;5.47;;;18.30;99.90;;;;;;5076811;28;20193;-80
2022/07/20 04:04:14;;;;;;;6.60;4.93;;;;;;;;;;5095434;28;20260;-81
2022/07/20 04:06:40;;;;;;;8.80;5.40;;;18.00;99.90;;;;;;5078652;28;20178;-80
2022/07/20 04:09:06;;;;;;;6.83;5.30;;;18.20;99.90;;;;;;5080358;28;20590;-81
2022/07/20 04:11:32;;;;;;;7.33;5.60;;;;;;;;;;5080101;28;20530;-81
2022/07/20 04:13:57;;;;;;;6.73;5.90;;;18.10;99.90;;;;;;5078773;28;20213;-80
2022/07/20 04:16:23;;;;;;;8.33;5.13;;;18.10;99.90;;;;;;5079952;28;20177;-81
2022/07/20 04:18:49;;;;;;;8.03;5.10;;;17.80;99.90;;;;;;5078658;28;20173;-81
2022/07/20 04:21:15;;;;;;;12.07;5.90;;;;;;;;;;5080133;28;20282;-81
2022/07/20 04:23:41;;;;;;;5.90;4.93;;;18.10;99.90;;;;;;5080012;28;20284;-80
2022/07/20 04:26:07;;;;;;;6.00;5.37;;;;;;;;;;5078529;28;20197;-81
2022/07/20 04:28:32;;;;;;;5.80;5.20;;;18.00;99.90;;;;;;5079741;28;20170;-81
2022/07/20 04:30:58;;;;;;;7.53;5.23;;;17.90;99.90;;;;;;5080099;28;20249;-81
2022/07/20 04:33:24;;;;;;;11.33;5.60;;;18.00;99.90;;;;;;5078797;28;20206;-80
2022/07/20 04:35:50;;;;;;;8.33;5.70;;;17.70;99.90;;;;;;5080340;28;20173;-81
2022/07/20 04:38:17;;;;;;;10.17;5.93;;;18.10;99.90;;;;;;5078950;28;20209;-81
2022/07/20 04:40:44;;;;;;;10.43;5.47;;;17.90;99.90;;;;;;5080113;28;20198;-80
2022/07/20 04:43:10;;;;;;;7.30;5.37;;;18.10;99.90;;;;;;5070229;28;20210;-81
2022/07/20 04:45:36;;;;;;;6.13;5.30;;;18.00;99.90;;;;;;5059369;28;20201;-82
2022/07/20 04:48:01;;;;;;;8.63;5.33;;;18.00;99.90;;;;;;5061219;28;20186;-81
2022/07/20 04:50:28;;;;;;;6.97;4.97;;;;;;;;;;5060676;28;20197;-82
2022/07/20 04:52:53;;;;;;;6.93;5.17;;;18.10;99.90;;;;;;5059678;28;20637;-81
2022/07/20 04:55:19;;;;;;;6.43;4.80;;;;;;;;;;5061061;28;20222;-80
2022/07/20 04:57:46;;;;;;;9.43;5.43;;;;;;;;;;5078277;28;20179;-81
2022/07/20 05:00:12;;;;;;;9.60;5.70;;;;;;;;;;5062280;28;20177;-81
2022/07/20 05:02:38;;;;;;;10.70;5.03;;;18.50;99.90;;;;;;5061764;28;20279;-80
2022/07/20 05:05:05;;;;;;;6.53;5.07;;;18.60;99.90;;;;;;5060729;28;20666;-81
2022/07/20 05:07:30;;;;;;;8.20;4.70;;;18.60;99.90;;;;;;5062150;28;20176;-82
2022/07/20 05:09:56;;;;;;;7.10;5.27;;;;;;;;;;5060191;28;20654;-80
2022/07/20 05:12:22;;;;;;;5.60;4.83;;;18.90;99.90;;;;;;5082038;28;20187;-81
2022/07/20 05:14:48;;;;;;;7.17;5.00;;;;;;;;;;5080409;28;20203;-80
2022/07/20 05:17:14;;;;;;;7.83;5.57;;;19.20;99.90;;;;;;5081834;28;20240;-81
2022/07/20 05:19:40;;;;;;;9.50;4.90;;;18.90;99.90;;;;;;5079811;28;20179;-82
2022/07/20 05:22:06;;;;;;;10.27;5.10;;;;;;;;;;5074868;28;20692;-80
2022/07/20 05:24:31;;;;;;;6.93;4.90;;;19.60;99.90;;;;;;5074848;28;20200;-80
2022/07/20 05:26:57;;;;;;;5.70;4.93;;;;;;;;;;5074004;28;20192;-81
2022/07/20 05:29:23;;;;;;;6.87;5.03;;;19.60;99.90;;;;;;5059276;28;20594;-81
2022/07/20 05:31:49;;;;;;;8.30;5.63;;;;;;;;;;5061186;28;20176;-81
2022/07/20 05:34:15;;;;;;;7.40;4.73;;;;;;;;;;5059295;28;20210;-81
2022/07/20 05:36:41;;;;;;;5.27;4.77;;;19.90;99.90;;;;;;5058412;28;20182;-81
2022/07/20 05:39:09;;;;;;;6.10;4.63;;;19.90;99.90;;;;;;5059416;28;20199;-81
2022/07/20 05:41:35;;;;;;;7.43;4.63;;;;;;;;;;5063036;28;20181;-81
2022/07/20 05:44:01;;;;;;;6.97;4.43;;;20.50;99.90;;;;;;5073606;28;20207;-81
2022/07/20 05:46:27;;;;;;;7.27;4.87;;;;;;;;;;5082984;28;20533;-81
2022/07/20 05:48:53;;;;;;;7.00;4.27;;;20.40;99.90;;;;;;5083220;28;20167;-82
2022/07/20 05:51:19;;;;;;;8.77;4.73;;;;;;;;;;5081201;28;20175;-81
2022/07/20 05:53:45;;;;;;;7.50;5.00;;;20.70;99.90;;;;;;5079575;28;20230;-82
2022/07/20 05:56:11;;;;;;;5.40;4.20;;;;;;;;;;5082769;28;20173;-81
2022/07/20 05:58:37;;;;;;;4.97;4.40;;;20.90;98.30;;;;;;5082561;28;20645;-81
2022/07/20 06:01:03;;;;;;;7.87;4.60;;;21.30;99.90;;;;;;5062515;28;20226;-81
2022/07/20 06:03:29;;;;;;;7.17;4.87;;;21.10;99.90;;;;;;5081222;28;20204;-82
2022/07/20 06:05:55;;;;;;;12.57;5.13;;;;;;;;;;5082203;28;20169;-82
2022/07/20 06:08:21;;;;;;;5.87;5.23;;;;;;;;;;5082353;28;20226;-81
2022/07/20 06:10:47;;;;;;;7.03;4.93;;;;;;;;;;5081348;28;20169;-81
2022/07/20 06:13:12;;;;;;;6.80;5.60;;;21.80;98.90;;;;;;5071544;28;20185;-84
2022/07/20 06:15:39;;;;;;;5.67;4.63;;;;;;;;;;5061603;28;20194;-80
2022/07/20 06:18:06;;;;;;;7.63;4.77;;;;;;;;;;5059437;28;20185;-81
2022/07/20 06:20:32;;;;;;;4.97;4.47;;;21.80;96.00;;;;;;5057487;28;20268;-81
2022/07/20 06:22:58;;;;;;;12.97;4.70;;;21.80;96.20;;;;;;5061242;28;20229;-80
2022/07/20 06:25:24;;;;;;;7.33;4.73;;;22.00;95.90;;;;;;5059926;28;20194;-81
2022/07/20 06:27:50;;;;;;;6.97;4.67;;;21.80;95.90;;;;;;5060707;28;20698;-81
2022/07/20 06:30:16;;;;;;;11.13;5.77;;;22.00;95.80;;;;;;5059246;28;20562;-81
2022/07/20 06:32:42;;;;;;;6.83;4.37;;;22.10;96.10;;;;;;5059665;28;20182;-80
2022/07/20 06:35:08;;;;;;;9.13;4.70;;;;;;;;;;5061720;28;20190;-84
2022/07/20 06:37:34;;;;;;;7.43;5.00;;;;;;;;;;5062622;28;20212;-83
2022/07/20 06:40:00;;;;;;;7.80;4.80;;;;;;;;;;5062564;28;20193;-82
2022/07/20 06:42:26;;;;;;;10.23;4.53;;;22.50;95.10;;;;;;5061939;28;20209;-82
2022/07/20 06:44:52;;;;;;;9.20;5.30;;;;;;;;;;5081604;28;20248;-82
2022/07/20 06:47:18;;;;;;;6.83;4.93;;;22.90;95.00;;;;;;5080818;28;20639;-82
2022/07/20 06:49:45;;;;;;;5.03;4.63;;;23.10;94.90;;;;;;5083115;28;20245;-83
2022/07/20 06:52:11;;;;;;;6.37;4.87;;;;;;;;;;5083088;28;20177;-83
2022/07/20 06:54:37;;;;;;;8.30;5.00;;;;;;;;;;5077402;28;20746;-81
2022/07/20 06:57:03;;;;;;;6.37;4.80;;;;;;;;;;5081164;28;20650;-82
2022/07/20 06:59:29;;;;;;;5.70;4.83;;;;;;;;;;5080725;28;20192;-82
2022/07/20 07:01:54;;;;;;;10.40;5.40;;;23.70;94.60;;;;;;5079913;28;20245;-82
2022/07/20 07:04:21;;;;;;;8.47;5.27;;;;;;;;;;5079785;28;20272;-82
2022/07/20 07:06:47;;;;;;;7.20;4.90;;;;;;;;;;5080959;28;20190;-82
2022/07/20 07:09:13;;;;;;;6.27;5.10;;;;;;;;;;5080493;28;20207;-82
2022/07/20 07:11:39;;;;;;;11.73;4.77;;;;;;;;;;5079315;28;20176;-82
2022/07/20 07:14:05;;;;;;;8.00;5.77;;;;;;;;;;5078308;28;20295;-82
2022/07/20 07:16:31;;;;;;;5.77;5.17;;;;;;;;;;5080170;28;20181;-82
2022/07/20 07:18:57;;;;;;;7.63;5.10;;;24.70;94.00;;;;;;5075532;28;20182;-81
2022/07/20 07:21:24;;;;;;;9.03;5.50;;;24.90;93.80;;;;;;5076285;28;20180;-81
2022/07/20 07:23:50;;;;;;;5.20;4.53;;;;;;;;;;5076797;28;20217;-82
2022/07/20 07:26:18;;;;;;;10.40;5.30;;;25.20;93.70;;;;;;5059809;28;20181;-81
2022/07/20 07:28:44;;;;;;;8.10;5.00;;;;;;;;;;5054772;28;20178;-81
2022/07/20 07:31:10;;;;;;;10.37;5.23;;;25.40;92.60;;;;;;5061466;28;20700;-81
2022/07/20 07:33:36;;;;;;;9.13;5.30;;;;;;;;;;5074033;28;20733;-82
2022/07/20 07:36:03;;;;;;;6.67;5.07;;;26.20;90.70;;;;;;5069642;28;20244;-82
2022/07/20 07:38:29;;;;;;;5.57;4.60;;;;;;;;;;5077250;28;20263;-82
2022/07/20 07:40:55;;;;;;;9.07;5.10;;;;;;;;;;5079495;28;20190;-83
2022/07/20 07:43:21;;;;;;;5.20;4.37;;;;;;;;;;5075313;28;20236;-81
2022/07/20 07:45:47;;;;;;;8.53;5.20;;;26.70;88.30;;;;;;5057562;28;20177;-81
2022/07/20 07:48:13;;;;;;;6.07;4.63;;;;;;;;;;5057069;28;20177;-82
2022/07/20 07:50:40;;;;;;;7.60;4.60;;;27.00;85.60;;;;;;5077642;28;20628;-82
2022/07/20 07:53:07;;;;;;;8.97;4.73;;;;;;;;;;5077949;28;20581;-81
2022/07/20 07:55:38;;;;;;;5.67;4.47;;;27.20;85.80;;;;;;5078239;28;20255;-82
2022/07/20 07:58:05;;;;;;;8.47;4.87;;;27.40;84.70;;;;;;5077553;28;20672;-82
2022/07/20 08:00:31;;;;;;;4.80;4.30;;;27.50;82.90;;;;;;5074829;28;20294;-83
2022/07/20 08:02:56;;;;;;;7.20;4.30;;;27.70;82.60;;;;;;5057512;28;20607;-81
2022/07/20 08:05:22;;;;;;;5.23;4.53;;;27.90;81.00;;;;;;5056441;28;20245;-82
2022/07/20 08:07:49;;;;;;;4.87;3.97;;;;;;;;;;5059008;28;20189;-82
2022/07/20 08:10:15;;;;;;;11.20;4.10;;;28.10;79.30;;;;;;5076180;28;20333;-81
2022/07/20 08:12:42;;;;;;;6.10;4.10;;;28.20;78.00;;;;;;5078386;28;20215;-83
2022/07/20 08:15:09;;;;;;;5.53;4.10;;;28.30;75.90;;;;;;5077572;28;20557;-80
2022/07/20 08:17:34;;;;;;;8.63;4.07;;;28.30;76.90;;;;;;5059144;28;20188;-82
2022/07/20 08:20:00;;;;;;;6.23;4.13;;;28.50;77.10;;;;;;5073209;28;20189;-80
2022/07/20 08:22:26;;;;;;;7.00;4.23;;;28.60;78.40;;;;;;5080022;28;20206;-80
2022/07/20 08:24:51;;;;;;;9.23;4.63;;;28.70;75.60;;;;;;5078523;28;20190;-81
2022/07/20 08:27:17;;;;;;;6.67;4.70;;;;;;;;;;5079711;28;20186;-80
2022/07/20 08:29:43;;;;;;;4.80;4.30;;;28.90;76.50;;;;;;5079388;28;20187;-80
2022/07/20 08:32:09;;;;;;;6.50;4.50;;;29.00;75.50;;;;;;5079148;28;20540;-80
2022/07/20 08:34:34;;;;;;;5.43;4.40;;;29.10;75.50;;;;;;5077245;28;20667;-80
2022/07/20 08:37:00;;;;;;;7.77;4.83;;;29.10;74.90;;;;;;5078851;28;20182;-80
2022/07/20 08:39:26;;;;;;;6.60;4.93;;;29.20;75.50;;;;;;5079798;28;20227;-80
2022/07/20 08:41:51;;;;;;;8.30;5.17;;;29.30;74.80;;;;;;5079983;28;20260;-81
2022/07/20 08:44:17;;;;;;;7.83;5.10;;;29.30;76.10;;;;;;5080563;28;20584;-80
2022/07/20 08:46:45;;;;;;;5.90;5.10;;;29.30;77.00;;;;;;5079171;28;20169;-80
2022/07/20 08:49:15;;;;;;;6.33;5.70;;;29.40;77.60;;;;;;5076684;28;20178;-80
2022/07/20 08:51:41;;;;;;;13.33;5.80;;;29.50;77.80;;;;;;5079088;28;20192;-80
2022/07/20 08:54:08;;;;;;;6.57;5.37;;;;;;;;;;5079265;28;20215;-80
2022/07/20 08:56:34;;;;;;;6.23;5.33;;;29.80;75.80;;;;;;5077305;28;20633;-80
2022/07/20 08:59:00;;;;;;;7.07;5.63;;;29.80;75.90;;;;;;5078142;28;20687;-81
2022/07/20 09:01:25;;;;;;;9.27;5.53;;;29.90;76.30;;;;;;5076537;28;20202;-80
2022/07/20 09:04:11;;;;;;;7.40;5.23;;;30.10;76.80;;;;;;5076671;28;20220;-80
2022/07/20 09:06:47;;;;;;;10.03;5.77;;;30.20;79.40;;;;;;5075325;28;20186;-80
2022/07/20 09:09:13;;;;;;;8.07;4.90;;;30.50;77.70;;;;;;5076460;28;20178;-78
2022/07/20 09:11:40;;;;;;;7.60;5.00;;;30.60;76.30;;;;;;5076096;28;20640;-80
2022/07/20 09:14:05;;;;;;;8.83;5.43;;;31.00;74.30;;;;;;5076775;28;20189;-77
2022/07/20 09:16:47;;;;;;;7.00;5.00;;;31.10;74.70;;;;;;5080179;28;20263;-77
2022/07/20 09:19:15;;;;;;;5.83;5.30;;;31.60;72.70;;;;;;5078670;28;20564;-80
2022/07/20 09:21:41;;;;;;;7.37;5.40;;;31.80;72.40;;;;;;5078429;28;20181;-80
2022/07/20 09:24:08;;;;;;;5.87;4.83;;;31.90;72.90;;;;;;5079005;28;20689;-81
2022/07/20 09:26:35;;;;;;;6.03;5.43;;;31.90;70.50;;;;;;5079812;28;20610;-80
2022/07/20 09:29:05;;;;;;;6.10;5.07;;;32.00;72.20;;;;;;5077743;28;20195;-80
2022/07/20 09:31:35;;;;;;;5.23;4.73;;;31.80;69.40;;;;;;5078358;28;20260;-79
2022/07/20 09:34:12;;;;;;;9.73;5.30;;;31.90;70.10;;;;;;5077811;28;20211;-81
2022/07/20 09:36:45;;;;;;;6.70;5.27;;;31.80;71.70;;;;;;5075733;28;20552;-80
2022/07/20 09:39:12;;;;;;;5.93;5.33;;;31.80;71.80;;;;;;5082656;28;20576;-80
2022/07/20 09:41:40;;;;;;;8.77;4.90;;;31.80;68.50;;;;;;5084368;28;20177;-79
2022/07/20 09:44:07;;;;;;;6.67;4.80;;;32.00;69.00;;;;;;5082635;28;20670;-79
2022/07/20 09:46:34;;;;;;;8.10;4.63;;;32.00;70.00;;;;;;5082920;28;20177;-79
2022/07/20 09:49:06;;;;;;;7.60;4.90;;;32.20;68.20;;;;;;5082241;28;20179;-79
2022/07/20 09:51:37;;;;;;;10.47;5.20;;;32.40;68.30;;;;;;5084271;28;20197;-79
2022/07/20 09:54:13;;;;;;;10.53;4.70;;;32.50;65.30;;;;;;5083407;28;20201;-79
2022/07/20 09:56:45;;;;;;;10.20;4.60;;;32.40;66.40;;;;;;5082358;28;20193;-79
2022/07/20 09:59:12;;;;;;;7.07;5.70;;;32.40;65.50;;;;;;5083381;28;20262;-79
2022/07/20 10:01:41;;;;;;;9.03;4.67;;;32.40;66.40;;;;;;5082928;28;20181;-79
2022/07/20 10:04:09;;;;;;;6.23;4.73;;;32.60;66.60;;;;;;5082798;28;20570;-79
2022/07/20 10:06:37;;;;;;;5.90;4.70;;;32.70;68.00;;;;;;5083741;28;20173;-80
2022/07/20 10:09:04;;;;;;;8.57;4.87;;;32.80;66.80;;;;;;5081628;28;20281;-79
2022/07/20 10:11:29;;;;;;;7.90;4.97;;;32.90;64.50;;;;;;5082707;28;20173;-79
2022/07/20 10:13:57;;;;;;;10.40;5.03;;;33.30;64.10;;;;;;5082964;28;20200;-78
2022/07/20 10:16:51;;;;;;;8.33;5.13;;;33.40;65.70;;;;;;5083605;28;20252;-79
2022/07/20 10:19:18;;;;;;;5.30;4.80;;;33.50;65.10;;;;;;5082526;28;20166;-79
2022/07/20 10:21:49;;;;;;;5.23;4.67;;;33.40;63.00;;;;;;5082289;28;20228;-79
2022/07/20 10:24:21;;;;;;;10.00;5.37;;;33.40;62.00;;;;;;5082021;28;20243;-79
2022/07/20 10:26:49;;;;;;;8.43;4.97;;;33.40;63.40;;;;;;5082159;28;20187;-79
2022/07/20 10:29:34;;;;;;;7.07;4.43;;;33.80;67.40;;;;;;5083303;28;20268;-79
2022/07/20 10:32:09;;;;;;;7.30;4.40;;;34.00;62.80;;;;;;5082808;28;20180;-79
2022/07/20 10:34:37;;;;;;;5.90;4.67;;;34.40;62.90;;;;;;5084880;28;20603;-78
2022/07/20 10:37:34;;;;;;;6.87;4.60;;;34.50;64.80;;;;;;5084275;28;20180;-77
2022/07/20 10:40:10;;;;;;;6.03;4.77;;;34.80;65.00;;;;;;5081954;28;20185;-78
2022/07/20 10:42:42;;;;;;;7.17;4.73;;;34.80;63.00;;;;;;5080924;28;20543;-78
2022/07/20 10:45:11;;;;;;;8.90;4.93;;;35.00;62.90;;;;;;5081136;28;20254;-78
2022/07/20 10:47:56;;;;;;;6.63;4.40;;;35.10;63.30;;;;;;5080310;28;20293;-79
2022/07/20 10:50:29;;;;;;;6.93;4.13;;;35.30;61.00;;;;;;5079740;28;20189;-78
2022/07/20 10:53:17;;;;;;;6.80;4.50;;;35.20;65.30;;;;;;5082253;28;20175;-78
2022/07/20 10:55:58;;;;;;;4.97;4.40;;;35.30;58.50;;;;;;5070970;28;20193;-80
2022/07/20 10:58:31;;;;;;;7.17;4.37;;;35.30;58.40;;;;;;5082272;28;20153;-78
2022/07/20 11:01:06;;;;;;;6.03;3.90;;;35.20;55.10;;;;;;5082850;28;20172;-79
2022/07/20 11:03:36;;;;;;;4.80;4.20;;;35.40;57.40;;;;;;5081764;28;20287;-79
2022/07/20 11:06:18;;;;;;;7.50;4.00;;;35.40;58.10;;;;;;5082578;28;20173;-79
2022/07/20 11:08:50;;;;;;;8.27;4.60;;;35.50;61.20;;;;;;5082352;28;20182;-79
2022/07/20 11:11:20;;;;;;;4.27;3.60;;;35.80;63.20;;;;;;5082190;28;20222;-79
2022/07/20 11:13:47;;;;;;;6.60;4.23;;;36.10;56.20;;;;;;5082815;28;20202;-80
2022/07/20 11:16:16;;;;;;;6.53;4.20;;;36.10;57.10;;;;;;5083196;28;20191;-79
2022/07/20 11:18:42;;;;;;;5.57;5.07;;;36.20;55.40;;;;;;5083451;28;20188;-78
2022/07/20 11:21:10;;;;;;;5.47;4.53;;;36.10;56.30;;;;;;5079909;28;20184;-79
2022/07/20 11:23:50;;;;;;;6.27;4.27;;;36.20;55.10;;;;;;5076874;28;20200;-78
2022/07/20 11:26:18;;;;;;;8.47;4.13;;;36.20;54.60;;;;;;5076930;28;20263;-78
2022/07/20 11:28:46;;;;;;;6.77;4.07;;;36.40;57.20;;;;;;5078335;28;20263;-78
2022/07/20 11:31:13;;;;;;;5.47;3.77;;;36.50;53.00;;;;;;5077412;28;20171;-78
2022/07/20 11:33:44;;;;;;;8.53;3.90;;;36.60;53.50;;;;;;5076997;28;20561;-78
2022/07/20 11:36:17;;;;;;;7.50;3.77;;;36.80;57.30;;;;;;5076563;28;20175;-77
2022/07/20 11:38:44;;;;;;;4.33;3.50;;;36.80;50.70;;;;;;5072015;28;20301;-78
2022/07/20 11:41:32;;;;;;;4.03;3.60;;;36.70;48.90;;;;;;5072954;28;20182;-78
2022/07/20 11:43:59;;;;;;;5.93;4.47;;;36.70;53.00;;;;;;5077246;28;20607;-78
2022/07/20 11:46:27;;;;;;;9.27;4.17;;;36.80;54.70;;;;;;5079217;28;20190;-79
2022/07/20 11:49:02;;;;;;;6.00;3.80;;;37.10;52.90;;;;;;5079089;28;20177;-78
2022/07/20 11:51:29;;;;;;;7.83;4.10;;;37.00;50.90;;;;;;5078982;28;20690;-78
2022/07/20 11:53:55;;;;;;;5.83;4.10;;;36.90;56.70;;;;;;5077462;28;20201;-78
2022/07/20 11:56:24;;;;;;;7.73;4.03;;;37.20;56.50;;;;;;5080582;28;20264;-79
2022/07/20 11:58:52;;;;;;;3.80;3.50;;;37.20;49.20;;;;;;5080249;28;20186;-79
2022/07/20 12:01:24;;;;;;;3.57;3.10;;;37.30;52.40;;;;;;5080208;28;20244;-79
2022/07/20 12:03:54;;;;;;;8.30;3.97;;;37.50;48.40;;;;;;5080344;28;20342;-79
2022/07/20 12:06:20;;;;;;;5.77;3.63;;;37.50;47.40;;;;;;5081752;28;20225;-80
2022/07/20 12:09:03;;;;;;;3.90;3.47;;;37.70;49.10;;;;;;5080817;28;20184;-79
2022/07/20 12:11:29;;;;;;;5.87;3.63;;;37.70;46.30;;;;;;5081665;28;20178;-79
2022/07/20 12:13:54;;;;;;;6.03;4.10;;;37.70;50.20;;;;;;5082062;28;20201;-78
2022/07/20 12:16:20;;;;;;;5.07;4.00;;;37.80;52.40;;;;;;5080567;28;20247;-79
2022/07/20 12:18:47;;;;;;;4.23;3.73;;;37.80;51.10;;;;;;5080544;28;20181;-79
2022/07/20 12:21:25;;;;;;;4.57;3.90;;;37.60;49.40;;;;;;5081844;28;20636;-79
2022/07/20 12:23:53;;;;;;;3.80;3.47;;;37.60;46.20;;;;;;5082066;28;20216;-79
2022/07/20 12:26:25;;;;;;;5.07;4.00;;;37.50;47.00;;;;;;5080732;28;20181;-79
2022/07/20 12:28:52;;;;;;;3.90;3.50;;;37.60;47.50;;;;;;5080598;28;20180;-78
2022/07/20 12:31:20;;;;;;;6.73;3.77;;;37.90;46.60;;;;;;5081343;28;20183;-79
2022/07/20 12:34:11;;;;;;;5.23;4.00;;;38.00;46.30;;;;;;5082261;28;20194;-78
2022/07/20 12:36:48;;;;;;;4.07;3.53;;;38.30;50.80;;;;;;5084248;28;20198;-78
2022/07/20 12:39:47;;;;;;;4.07;3.53;;;38.40;46.40;;;;;;5081114;28;20670;-79
2022/07/20 12:42:29;;;;;;;4.13;3.83;;;38.50;52.20;;;;;;5077210;28;20174;-78
2022/07/20 12:44:59;;;;;;;4.37;3.97;;;38.50;52.10;;;;;;5079278;28;20198;-78
2022/07/20 12:47:24;;;;;;;4.37;3.97;;;38.50;49.40;;;;;;5079375;28;20269;-78
2022/07/20 12:49:50;;;;;;;5.83;3.97;;;38.60;50.10;;;;;;5081521;28;20224;-78
2022/07/20 12:52:16;;;;;;;7.63;4.20;;;38.70;47.40;;;;;;5082447;28;20247;-78
2022/07/20 12:54:41;;;;;;;5.80;3.93;;;38.90;49.60;;;;;;5082054;28;20212;-78
2022/07/20 12:57:07;;;;;;;6.20;4.00;;;39.00;48.10;;;;;;5083650;28;20173;-78
2022/07/20 12:59:33;;;;;;;4.90;3.73;;;39.10;49.20;;;;;;5083654;28;20177;-78
2022/07/20 13:01:59;;;;;;;8.17;3.90;;;39.20;49.50;;;;;;5083269;28;20583;-78
2022/07/20 13:04:26;;;;;;;9.60;3.80;;;39.20;48.80;;;;;;5081599;28;20242;-79
2022/07/20 13:06:53;;;;;;;6.00;4.00;;;39.20;48.70;;;;;;5082982;28;20194;-78
2022/07/20 13:09:21;;;;;;;4.43;4.03;;;39.20;47.70;;;;;;5080600;28;20180;-78
2022/07/20 13:11:47;;;;;;;5.70;4.80;;;39.30;47.60;;;;;;5082607;28;20183;-78